Flight Track Log - Related Links

Times and Time Zones

All times are in EDT time to prevent confusion due to time zone crossing. See the N1ER flight status page for this flight to view local times or setup timezone preferences in your user account.

Time Position Orientation Groundspeed Altitude Reporting Facility
EDT Latitude Longitude Course Direction KTS MPH feet Rate Location/Type
Fri 10:28:30 PM 27.5519 -80.3819 316° Northwest 140 161 2,400  Level Miami Center
Fri 10:29:28 PM 27.5783 -80.4108 316° Northwest 129 148 3,100 807 Climbing Miami Center
Fri 10:30:29 PM 27.6028 -80.4328 321° Northwest 129 148 4,000 585 Climbing Miami Center
Fri 10:32:53 PM 27.6833 -80.5000 324° Northwest 146 168 5,100 265 Climbing Orlando TRACON
Fri 10:33:53 PM 27.7333 -80.5000 360° North 175 201 4,900 -50 Descending Orlando TRACON
Fri 10:34:53 PM 27.7667 -80.5167 336° Northwest 167 192 5,000 50 Climbing Orlando TRACON
Fri 10:35:53 PM 27.8167 -80.5333 344° North 165 190 5,000 -50 Level Orlando TRACON
Fri 10:36:53 PM 27.8667 -80.5500 344° North 172 198 4,900 -48 Descending Orlando TRACON
Fri 10:37:59 PM 27.9167 -80.5667 344° North 171 197 4,900  Level Orlando TRACON
Fri 10:38:59 PM 27.9500 -80.5833 336° Northwest 170 196 4,900 50 Level Orlando TRACON
Fri 10:39:59 PM 28.0000 -80.6000 344° North 168 193 5,000 100 Climbing Orlando TRACON
Fri 10:40:59 PM 28.0500 -80.6167 344° North 167 192 5,100  Climbing Orlando TRACON
Fri 10:41:59 PM 28.1000 -80.6333 344° North 170 196 5,000 -50 Descending Orlando TRACON
Fri 10:42:59 PM 28.1333 -80.6500 336° Northwest 173 199 5,000  Level Orlando TRACON
Fri 10:43:59 PM 28.1833 -80.6667 344° North 173 199 5,000  Level Orlando TRACON
Fri 10:44:59 PM 28.2333 -80.6833 344° North 169 194 5,000  Level Orlando TRACON
Fri 10:45:59 PM 28.2667 -80.7000 336° Northwest 171 197 5,000  Level Orlando TRACON
Fri 10:47:00 PM 28.3167 -80.7167 344° North 172 198 5,000  Level Orlando TRACON
Fri 10:48:00 PM 28.3667 -80.7333 344° North 174 200 5,000  Level Orlando TRACON
Fri 10:49:00 PM 28.4000 -80.7500 336° Northwest 174 200 5,000  Level Orlando TRACON
Fri 10:50:00 PM 28.4500 -80.7667 344° North 175 201 5,000  Level Orlando TRACON
Fri 10:51:00 PM 28.5000 -80.8000 330° Northwest 167 192 5,000  Level Orlando TRACON
Fri 10:52:05 PM 28.5500 -80.8167 344° North 171 197 5,000  Level Orlando TRACON
Fri 10:53:00 PM 28.5833 -80.8167 360° North 163 188 5,000 52 Level Orlando TRACON
Fri 10:54:00 PM 28.6333 -80.8333 344° North 173 199 5,100  Climbing Orlando TRACON
Fri 10:55:00 PM 28.6833 -80.8667 330° Northwest 169 194 5,000  Descending Orlando TRACON
Fri 10:56:00 PM 28.7167 -80.8833 336° Northwest 172 198 5,100  Climbing Orlando TRACON
Fri 10:58:02 PM 28.8108 -80.9189 342° North 172 198 5,000 -33 Descending Jacksonville Center
Fri 10:59:03 PM 28.8572 -80.9369 341° North 173 199 5,000  Level Jacksonville Center
Fri 11:00:03 PM 28.9011 -80.9525 343° North 173 199 5,000 -104 Level Jacksonville Center
Fri 11:00:58 PM 28.9453 -80.9706 340° North 174 200 4,800 -261 Descending Jacksonville Center
Fri 11:01:58 PM 28.9872 -80.9911 337° Northwest 174 200 4,500 -595 Descending Jacksonville Center
Fri 11:02:59 PM 28.9922 -81.0386 277° West 167 192 3,600 -689 Descending Jacksonville Center
Fri 11:04:00 PM 28.9867 -81.0861 262° West 151 174 3,100 -298 Descending Jacksonville Center
Fri 11:05:00 PM 28.9872 -81.1361 271° West 138 159 3,000 -50 Descending Jacksonville Center
Fri 11:06:01 PM 28.9919 -81.1739 278° West 122 140 3,000  Level Jacksonville Center
Fri 11:07:01 PM 28.9967 -81.2167 277° West 129 148 3,000  Level Jacksonville Center
Fri 11:08:02 PM 29.0097 -81.2544 292° West 132 152 3,000  Level Jacksonville Center
Fri 11:09:03 PM 29.0269 -81.2919 298° West 135 155 3,000 -50 Level Jacksonville Center
Fri 11:10:03 PM 29.0483 -81.3297 303° West 139 160 2,900 -198 Descending Jacksonville Center
Fri 11:11:04 PM 29.0794 -81.3103 29° Northeast 128 147 2,600 -492 Descending Jacksonville Center
Fri 11:12:05 PM 29.0914 -81.2744 69° East 123 142 1,900 -496 Descending Jacksonville Center
Fri 11:13:05 PM 29.1056 -81.2386 66° East 106 122 1,600 -99 Descending Jacksonville Center
Fri 11:14:06 PM 29.1156 -81.2144 65° Northeast 91 105 1,700  Climbing Jacksonville Center
Fri 11:15:06 PM 29.1300 -81.1858 60° Northeast 98 113 1,600 -99 Descending Jacksonville Center
Fri 11:16:07 PM 29.1400 -81.1569 68° East 95 109 1,500 -246 Descending Jacksonville Center
Fri 11:17:08 PM 29.1500 -81.1308 66° East 96 110 1,100 -446 Descending Jacksonville Center
Fri 11:18:08 PM 29.1642 -81.0972 64° Northeast 103 119 600 -236 Descending Jacksonville Center
Fri 11:19:15 PM 29.1889 -81.0800 31° Northeast 109 125 600  Level Jacksonville Center
Fri 11:21:00 PM 29.1799 -81.0581 46° Northeast  Level Estimated
Fri 11:28:00 PM 29.1799 -81.0581 46° Northeast  Level Estimated
Fri 11:29:00 PM 29.1799 -81.0581 46° Northeast  Level Estimated
Fri 11:30:00 PM 29.1799 -81.0581 46° Northeast  Level Estimated

Login

Don't have an account? Register now (free) for customized features, flight alerts, and more!